Time;durP1;ratioP1;P1;durP2;ratioP2;P2;SDS_P1;SDS_P2;PMS_P1;PMS_P2;Temp;Humidity;BMP_temperature;BMP_pressure;BME280_temperature;BME280_humidity;BME280_pressure;Samples;Min_cycle;Max_cycle;Signal;HPM_P1;HPM_P2
2022/04/28 00:00:15;;;;;;;5.72;4.13;;;20.60;99.90;;;;;;5055162;28;20311;-79
2022/04/28 00:02:45;;;;;;;5.72;3.40;;;20.60;99.90;;;;;;5043270;28;21194;-81
2022/04/28 00:05:18;;;;;;;4.20;3.80;;;20.60;99.90;;;;;;5040360;28;20265;-81
2022/04/28 00:07:49;;;;;;;4.18;3.55;;;20.70;99.90;;;;;;5043117;28;20223;-84
2022/04/28 00:10:20;;;;;;;3.60;3.03;;;20.70;99.90;;;;;;5045287;28;20274;-84
2022/04/28 00:12:51;;;;;;;4.25;3.60;;;20.70;99.90;;;;;;5045136;28;20221;-83
2022/04/28 00:15:22;;;;;;;4.32;3.90;;;20.70;99.90;;;;;;5046682;28;20227;-85
2022/04/28 00:17:52;;;;;;;3.92;3.30;;;20.80;99.90;;;;;;5047123;28;20223;-84
2022/04/28 00:20:25;;;;;;;4.30;3.40;;;20.70;99.90;;;;;;5045475;28;20278;-85
2022/04/28 00:22:56;;;;;;;4.15;3.38;;;20.70;99.90;;;;;;5043402;28;20216;-82
2022/04/28 00:25:26;;;;;;;4.53;2.83;;;20.80;99.90;;;;;;5045735;28;20220;-82
2022/04/28 00:27:57;;;;;;;3.58;3.03;;;20.80;99.90;;;;;;5042220;28;20654;-82
2022/04/28 00:30:28;;;;;;;5.45;2.90;;;20.80;99.90;;;;;;5041207;28;20201;-82
2022/04/28 00:32:58;;;;;;;6.15;3.10;;;20.80;99.90;;;;;;5042735;28;20584;-84
2022/04/28 00:35:31;;;;;;;3.17;2.70;;;20.90;99.90;;;;;;5040921;28;20278;-83
2022/04/28 00:38:02;;;;;;;3.10;2.45;;;20.90;99.90;;;;;;5038902;28;20489;-82
2022/04/28 00:40:32;;;;;;;2.50;2.20;;;20.90;99.90;;;;;;5040900;28;20750;-84
2022/04/28 00:45:46;;;;;;;2.33;2.13;;;21.00;99.90;;;;;;5038859;28;20723;-84
2022/04/28 00:51:07;;;;;;;2.72;2.20;;;21.10;99.90;;;;;;5046116;28;20580;-84
2022/04/28 00:53:39;;;;;;;2.90;2.70;;;21.10;99.90;;;;;;5044138;28;20282;-83
2022/04/28 00:56:11;;;;;;;3.05;2.35;;;21.10;99.90;;;;;;5045183;28;20243;-85
2022/04/28 00:58:42;;;;;;;3.28;2.55;;;21.10;99.90;;;;;;5047311;28;20804;-82
2022/04/28 01:01:13;;;;;;;2.90;2.60;;;21.10;99.90;;;;;;5048179;28;20779;-80
2022/04/28 01:03:46;;;;;;;2.88;2.05;;;21.10;99.90;;;;;;5060577;28;20413;-82
2022/04/28 01:06:18;;;;;;;2.30;2.03;;;21.20;99.90;;;;;;5059895;28;20211;-80
2022/04/28 01:08:49;;;;;;;3.88;2.00;;;21.20;99.90;;;;;;5060192;28;20200;-80
2022/04/28 01:11:20;;;;;;;2.90;2.30;;;21.20;99.90;;;;;;5060042;28;20204;-81
2022/04/28 01:13:50;;;;;;;4.47;2.42;;;21.30;99.90;;;;;;5062454;28;20196;-80
2022/04/28 01:16:21;;;;;;;2.78;2.20;;;21.30;99.90;;;;;;5066008;28;20203;-81
2022/04/28 01:18:53;;;;;;;2.00;1.80;;;21.40;99.90;;;;;;5063282;28;21689;-80
2022/04/28 01:21:26;;;;;;;1.95;1.73;;;21.40;99.90;;;;;;5068160;28;20249;-82
2022/04/28 01:23:59;;;;;;;6.95;1.85;;;21.50;99.90;;;;;;5063774;28;20265;-81
2022/04/28 01:26:31;;;;;;;2.45;1.50;;;21.50;99.90;;;;;;5071595;28;20203;-80
2022/04/28 01:29:01;;;;;;;2.15;1.52;;;21.60;99.90;;;;;;5062552;28;20203;-80
2022/04/28 01:31:32;;;;;;;2.25;1.60;;;21.60;99.90;;;;;;5063418;28;20328;-80
2022/04/28 01:34:02;;;;;;;1.75;1.40;;;21.60;99.90;;;;;;5063271;28;20285;-80
2022/04/28 01:36:35;;;;;;;1.98;1.60;;;21.70;99.90;;;;;;5061256;28;20256;-80
2022/04/28 01:39:09;;;;;;;1.52;1.20;;;21.80;99.90;;;;;;5063025;28;20261;-83
2022/04/28 01:41:40;;;;;;;3.05;1.40;;;21.80;99.90;;;;;;5065300;28;20269;-82
2022/04/28 01:44:10;;;;;;;1.77;1.52;;;22.00;99.90;;;;;;5061856;28;20196;-80
2022/04/28 01:46:41;;;;;;;2.50;1.65;;;22.10;99.90;;;;;;5066105;28;20195;-80
2022/04/28 01:49:12;;;;;;;2.53;2.10;;;22.10;99.90;;;;;;5061449;28;20195;-80
2022/04/28 01:57:18;;;;;;;2.92;1.80;;;22.30;99.90;;;;;;5074280;28;20194;-81
2022/04/28 01:59:48;;;;;;;2.67;1.90;;;22.30;99.90;;;;;;5094558;28;20245;-81
2022/04/28 02:02:19;;;;;;;3.03;1.70;;;22.30;99.90;;;;;;5084496;28;20772;-81
2022/04/28 02:04:49;;;;;;;2.60;1.30;;;22.30;99.90;;;;;;5090374;28;20195;-81
2022/04/28 02:07:22;;;;;;;1.70;1.50;;;22.30;99.90;;;;;;5094697;28;20654;-81
2022/04/28 02:09:53;;;;;;;1.88;1.20;;;22.30;99.90;;;;;;5073935;28;20196;-80
2022/04/28 02:12:24;;;;;;;2.17;1.30;;;22.30;99.90;;;;;;5073483;28;20311;-78
2022/04/28 02:14:55;;;;;;;2.42;1.50;;;22.30;99.90;;;;;;5089259;28;20677;-81
2022/04/28 02:17:27;;;;;;;2.08;1.60;;;22.30;99.90;;;;;;5080300;28;20195;-84
2022/04/28 02:19:58;;;;;;;1.73;1.10;;;22.30;99.90;;;;;;5076377;28;20299;-85
2022/04/28 02:22:31;;;;;;;1.08;0.90;;;22.30;99.90;;;;;;5077673;28;20221;-83
2022/04/28 02:25:02;;;;;;;0.60;0.60;;;22.30;99.90;;;;;;5091903;28;20203;-85
2022/04/28 02:27:32;;;;;;;0.85;0.80;;;22.30;99.90;;;;;;5073339;28;20199;-86
2022/04/28 02:30:03;;;;;;;0.73;0.68;;;22.40;99.90;;;;;;5067687;28;20203;-84
2022/04/28 02:35:17;;;;;;;1.20;0.70;;;22.30;99.90;;;;;;5070609;28;20688;-82
2022/04/28 02:37:49;;;;;;;3.53;0.60;;;22.40;99.90;;;;;;5069415;28;20204;-85
2022/04/28 02:40:20;;;;;;;1.27;0.90;;;22.40;99.90;;;;;;5065552;28;20203;-84
2022/04/28 02:42:51;;;;;;;0.88;0.70;;;22.30;99.90;;;;;;5069600;28;20960;-84
2022/04/28 02:45:22;;;;;;;4.70;0.80;;;22.30;99.90;;;;;;5072305;28;20203;-84
2022/04/28 02:47:52;;;;;;;0.90;0.85;;;22.30;99.90;;;;;;5069607;28;20790;-81
2022/04/28 02:50:23;;;;;;;4.30;0.90;;;22.20;99.90;;;;;;5069448;28;20252;-84
2022/04/28 02:52:56;;;;;;;2.33;0.80;;;22.20;99.90;;;;;;5068205;28;20255;-84
2022/04/28 02:55:27;;;;;;;4.68;0.85;;;22.20;99.90;;;;;;5065496;28;20592;-83
2022/04/28 02:58:01;;;;;;;1.63;0.90;;;22.20;99.90;;;;;;5065663;28;21437;-84
2022/04/28 03:00:32;;;;;;;2.10;0.80;;;22.20;99.90;;;;;;5063955;28;20204;-81
2022/04/28 03:03:03;;;;;;;1.95;0.70;;;22.20;99.90;;;;;;5063757;28;20196;-82
2022/04/28 03:10:46;;;;;;;2.13;0.88;;;22.10;99.90;;;;;;5061470;28;20297;-83
2022/04/28 03:11:13;;;;;;;4.00;1.00;;;22.00;99.90;;;;;;5062445;28;20210;-83
2022/04/28 03:13:44;;;;;;;5.43;1.15;;;22.00;99.90;;;;;;5064902;28;20231;-83
2022/04/28 03:16:15;;;;;;;2.97;1.02;;;22.00;99.90;;;;;;5072710;28;20200;-84
2022/04/28 03:18:46;;;;;;;2.58;0.98;;;21.90;99.90;;;;;;5085023;28;20198;-80
2022/04/28 03:21:17;;;;;;;2.25;0.70;;;21.90;99.90;;;;;;5086289;28;20659;-81
2022/04/28 03:23:49;;;;;;;1.95;0.70;;;21.80;99.90;;;;;;5071603;28;20253;-81
2022/04/28 03:26:21;;;;;;;2.08;1.00;;;21.60;99.90;;;;;;5077873;28;20196;-82
2022/04/28 03:28:51;;;;;;;2.92;0.70;;;21.50;99.90;;;;;;5073056;28;20203;-82
2022/04/28 03:31:22;;;;;;;1.50;0.60;;;21.50;99.90;;;;;;5073473;28;20265;-82
2022/04/28 03:33:53;;;;;;;1.13;0.60;;;21.30;99.90;;;;;;5073820;28;20237;-81
2022/04/28 03:39:12;;;;;;;2.90;0.90;;;21.20;99.90;;;;;;5060446;28;20232;-80
2022/04/28 03:41:43;;;;;;;2.67;0.75;;;21.20;99.90;;;;;;5061028;28;20223;-79
2022/04/28 03:44:14;;;;;;;2.78;1.02;;;21.10;99.90;;;;;;5060955;28;20630;-79
2022/04/28 03:46:44;;;;;;;2.13;0.70;;;21.10;99.90;;;;;;5061170;28;20203;-80
2022/04/28 03:49:15;;;;;;;1.70;0.52;;;21.00;99.90;;;;;;5059950;28;20198;-79
2022/04/28 03:51:46;;;;;;;1.10;0.50;;;21.00;99.90;;;;;;5077490;28;20476;-78
2022/04/28 03:54:18;;;;;;;1.15;0.60;;;20.90;99.90;;;;;;5089577;28;20223;-78
2022/04/28 03:56:49;;;;;;;1.55;0.68;;;20.90;99.90;;;;;;5088915;28;20195;-78
2022/04/28 03:59:20;;;;;;;3.50;0.90;;;20.80;99.90;;;;;;5088662;28;20199;-77
2022/04/28 04:01:51;;;;;;;0.90;0.45;;;20.80;99.90;;;;;;5089065;28;20227;-77
2022/04/28 04:04:22;;;;;;;0.77;0.60;;;20.80;99.90;;;;;;5079646;28;20627;-80
2022/04/28 04:06:53;;;;;;;2.15;0.80;;;20.80;99.90;;;;;;5069856;28;20678;-79
2022/04/28 04:09:25;;;;;;;1.45;0.70;;;20.80;99.90;;;;;;5070820;28;20241;-77
2022/04/28 04:11:56;;;;;;;1.65;0.52;;;20.80;99.90;;;;;;5070811;28;20200;-78
2022/04/28 04:14:27;;;;;;;1.13;0.70;;;20.80;99.90;;;;;;5070821;28;20223;-78
2022/04/28 04:16:57;;;;;;;1.77;0.55;;;20.80;99.90;;;;;;5070784;28;20215;-78
2022/04/28 04:19:28;;;;;;;2.83;0.93;;;20.80;99.90;;;;;;5080588;28;20206;-79
2022/04/28 04:21:59;;;;;;;2.53;0.80;;;20.80;99.90;;;;;;5084330;28;20218;-79
2022/04/28 04:24:32;;;;;;;1.17;0.60;;;20.80;99.90;;;;;;5090207;28;20206;-80
2022/04/28 04:27:03;;;;;;;2.60;0.80;;;20.80;99.90;;;;;;5092884;28;20306;-79
2022/04/28 04:29:33;;;;;;;1.98;0.70;;;20.80;99.90;;;;;;5092312;28;20669;-79
2022/04/28 04:32:25;;;;;;;4.20;0.80;;;20.90;99.90;;;;;;5091905;28;20195;-78
2022/04/28 04:34:56;;;;;;;0.90;0.70;;;20.90;99.90;;;;;;5091577;28;20195;-78
2022/04/28 04:37:28;;;;;;;0.52;0.50;;;20.90;99.90;;;;;;5075458;28;20194;-80
2022/04/28 04:40:01;;;;;;;1.17;0.73;;;20.90;99.90;;;;;;5070203;28;20197;-78
2022/04/28 04:42:32;;;;;;;3.85;0.88;;;20.90;99.90;;;;;;5070735;28;20192;-78
2022/04/28 04:45:02;;;;;;;6.50;1.25;;;20.90;99.90;;;;;;5086809;28;20211;-79
2022/04/28 04:47:33;;;;;;;2.97;0.90;;;20.90;99.90;;;;;;5076456;28;20219;-79
2022/04/28 04:50:04;;;;;;;2.10;0.80;;;21.00;99.90;;;;;;5086949;28;20587;-79
2022/04/28 04:52:35;;;;;;;2.60;0.95;;;20.90;99.90;;;;;;5081099;28;20199;-79
2022/04/28 04:55:08;;;;;;;2.20;0.90;;;20.90;99.90;;;;;;5069905;28;20191;-80
2022/04/28 04:57:39;;;;;;;3.15;1.20;;;20.90;99.90;;;;;;5076116;28;20199;-80
2022/04/28 05:00:11;;;;;;;4.25;0.90;;;20.90;99.90;;;;;;5079444;28;20283;-80
2022/04/28 05:02:41;;;;;;;3.08;0.88;;;20.90;99.90;;;;;;5086386;28;20274;-80
2022/04/28 05:05:13;;;;;;;1.15;0.68;;;20.90;99.90;;;;;;5079768;28;20176;-80
2022/04/28 05:07:43;;;;;;;2.13;0.80;;;20.80;99.90;;;;;;5078503;28;20298;-80
2022/04/28 05:10:17;;;;;;;1.98;0.90;;;20.70;99.90;;;;;;5081326;28;20323;-80
2022/04/28 05:12:48;;;;;;;2.00;0.60;;;20.70;99.90;;;;;;5081453;28;20211;-80
2022/04/28 05:15:18;;;;;;;1.10;0.60;;;20.60;99.90;;;;;;5080057;28;20378;-80
2022/04/28 05:17:49;;;;;;;1.60;0.70;;;20.60;99.90;;;;;;5079020;28;20260;-80
2022/04/28 05:20:20;;;;;;;1.13;0.65;;;20.60;99.90;;;;;;5078910;28;20206;-79
2022/04/28 05:22:50;;;;;;;0.90;0.50;;;20.60;99.90;;;;;;5076974;28;20204;-79
2022/04/28 05:25:23;;;;;;;1.83;0.65;;;20.70;99.90;;;;;;5082833;28;20218;-79
2022/04/28 05:27:54;;;;;;;1.15;0.70;;;20.70;99.90;;;;;;5075917;28;20557;-80
2022/04/28 05:30:25;;;;;;;1.05;0.55;;;20.70;99.90;;;;;;5079658;28;20207;-80
2022/04/28 05:32:56;;;;;;;2.28;0.85;;;20.70;99.90;;;;;;5078201;28;20196;-81
2022/04/28 05:35:27;;;;;;;3.25;1.02;;;20.70;99.90;;;;;;5078331;28;20199;-80
2022/04/28 05:37:58;;;;;;;1.83;0.60;;;20.70;99.90;;;;;;5078867;28;20248;-81
2022/04/28 05:40:31;;;;;;;0.80;0.60;;;20.70;99.90;;;;;;5078938;28;20215;-81
2022/04/28 05:45:49;;;;;;;3.97;1.08;;;20.80;99.90;;;;;;5081234;28;20788;-80
2022/04/28 05:48:20;;;;;;;1.73;0.70;;;20.70;99.90;;;;;;5080596;28;20195;-80
2022/04/28 05:50:51;;;;;;;1.25;0.70;;;20.70;99.90;;;;;;5080346;28;20215;-80
2022/04/28 05:53:21;;;;;;;1.48;0.57;;;20.70;99.90;;;;;;5082548;28;20211;-79
2022/04/28 05:55:54;;;;;;;3.22;0.70;;;20.70;99.90;;;;;;5081470;28;20204;-80
2022/04/28 05:58:25;;;;;;;1.50;0.70;;;20.70;99.90;;;;;;5079388;28;20197;-80
2022/04/28 06:00:56;;;;;;;1.77;1.40;;;20.70;99.90;;;;;;5085295;28;20314;-81
2022/04/28 06:03:26;;;;;;;1.90;0.80;;;20.70;99.90;;;;;;5082955;28;20192;-80
2022/04/28 06:05:57;;;;;;;0.60;0.50;;;20.70;99.90;;;;;;5081452;28;20196;-81
2022/04/28 06:08:28;;;;;;;2.10;0.80;;;20.70;99.90;;;;;;5086570;28;20290;-80
2022/04/28 06:11:01;;;;;;;1.08;0.70;;;20.60;99.90;;;;;;5085786;28;20195;-79
2022/04/28 06:13:32;;;;;;;1.10;0.52;;;20.50;99.90;;;;;;5076235;28;20223;-79
2022/04/28 06:16:03;;;;;;;0.82;0.50;;;20.50;99.90;;;;;;5082858;28;20203;-78
2022/04/28 06:18:34;;;;;;;0.45;0.45;;;20.50;99.90;;;;;;5085098;28;20199;-79
2022/04/28 06:21:05;;;;;;;1.25;0.60;;;20.50;99.90;;;;;;5084212;28;20202;-80
2022/04/28 06:23:35;;;;;;;1.15;0.50;;;20.40;99.90;;;;;;5085996;28;20199;-79
2022/04/28 06:26:08;;;;;;;2.25;0.90;;;20.50;99.90;;;;;;5084089;28;20195;-81
2022/04/28 06:28:38;;;;;;;2.22;0.65;;;20.50;99.90;;;;;;5085687;28;20217;-82
2022/04/28 06:31:09;;;;;;;1.67;0.85;;;20.50;99.90;;;;;;5082496;28;20194;-81
2022/04/28 06:33:44;;;;;;;1.63;0.70;;;20.50;99.90;;;;;;5083876;28;20219;-81
2022/04/28 06:36:15;;;;;;;1.80;0.77;;;20.50;99.90;;;;;;5084897;28;20194;-79
2022/04/28 06:38:46;;;;;;;1.30;0.60;;;20.50;99.90;;;;;;5080611;28;20195;-80
2022/04/28 06:41:19;;;;;;;0.75;0.60;;;20.60;99.90;;;;;;5079340;28;20557;-79
2022/04/28 06:43:50;;;;;;;1.15;0.80;;;20.50;99.90;;;;;;5081499;28;20222;-79
2022/04/28 06:46:21;;;;;;;1.45;0.80;;;20.50;99.90;;;;;;5082545;28;20192;-78
2022/04/28 06:48:52;;;;;;;1.27;0.77;;;20.50;99.90;;;;;;5084884;28;20183;-78
2022/04/28 06:51:22;;;;;;;0.88;0.75;;;20.60;99.90;;;;;;5084690;28;20210;-79
2022/04/28 06:53:53;;;;;;;1.35;0.77;;;20.60;99.90;;;;;;5083587;28;20208;-80
2022/04/28 06:56:26;;;;;;;1.58;0.70;;;20.60;99.90;;;;;;5082826;28;20196;-81
2022/04/28 06:58:56;;;;;;;1.88;1.00;;;20.60;99.90;;;;;;5085269;28;20191;-79
2022/04/28 07:01:27;;;;;;;1.70;1.10;;;20.60;99.90;;;;;;5084859;28;20234;-80
2022/04/28 07:03:57;;;;;;;4.03;1.00;;;20.60;99.90;;;;;;5084573;28;20199;-79
2022/04/28 07:06:28;;;;;;;1.63;0.90;;;20.60;99.90;;;;;;5080704;28;20612;-81
2022/04/28 07:08:59;;;;;;;3.42;1.20;;;20.60;99.90;;;;;;5083827;28;20592;-79
2022/04/28 07:11:31;;;;;;;2.78;1.13;;;20.60;99.90;;;;;;5075883;28;20260;-81
2022/04/28 07:14:02;;;;;;;1.88;0.77;;;20.60;99.90;;;;;;5078277;28;20467;-81
2022/04/28 07:16:33;;;;;;;1.80;0.90;;;20.60;99.90;;;;;;5081249;28;20581;-79
2022/04/28 07:19:05;;;;;;;2.50;1.00;;;20.60;99.90;;;;;;5075903;28;20637;-80
2022/04/28 07:21:36;;;;;;;1.88;0.85;;;20.60;99.90;;;;;;5081066;28;20256;-80
2022/04/28 07:24:08;;;;;;;3.63;0.93;;;20.50;99.90;;;;;;5084852;28;20569;-79
2022/04/28 07:26:41;;;;;;;2.60;0.90;;;20.60;99.90;;;;;;5082865;28;20199;-79
2022/04/28 07:29:11;;;;;;;3.00;1.00;;;20.50;99.90;;;;;;5080450;28;20523;-80
2022/04/28 07:31:43;;;;;;;3.55;1.10;;;20.60;99.90;;;;;;5082467;28;20187;-77
2022/04/28 07:34:14;;;;;;;1.95;0.90;;;20.60;99.90;;;;;;5083108;28;20786;-78
2022/04/28 07:36:45;;;;;;;2.95;1.08;;;20.50;99.90;;;;;;5076627;28;20203;-79
2022/04/28 07:39:16;;;;;;;1.95;0.90;;;20.50;99.90;;;;;;5083529;28;20199;-78
2022/04/28 07:41:48;;;;;;;2.72;1.20;;;20.50;99.90;;;;;;5081249;28;20203;-78
2022/04/28 07:44:19;;;;;;;2.00;0.93;;;20.60;99.90;;;;;;5083174;28;20623;-78
2022/04/28 07:46:50;;;;;;;1.55;1.00;;;20.60;99.90;;;;;;5080332;28;20280;-77
2022/04/28 07:49:21;;;;;;;1.40;0.93;;;20.50;99.90;;;;;;5080029;28;20196;-77
2022/04/28 07:51:51;;;;;;;2.10;1.00;;;20.50;99.90;;;;;;5073188;28;20229;-78
2022/04/28 07:54:22;;;;;;;5.05;1.10;;;20.50;99.90;;;;;;5077433;28;20211;-77
2022/04/28 07:56:55;;;;;;;2.72;1.10;;;20.50;99.90;;;;;;5079265;28;20192;-78
2022/04/28 07:59:25;;;;;;;1.65;0.98;;;20.50;99.90;;;;;;5083943;28;20200;-79
2022/04/28 08:01:56;;;;;;;3.10;1.08;;;20.50;99.90;;;;;;5079557;28;20234;-78
2022/04/28 08:04:27;;;;;;;1.83;1.00;;;20.40;99.90;;;;;;5079802;28;20202;-78
2022/04/28 08:06:58;;;;;;;1.42;0.93;;;20.40;99.90;;;;;;5082155;28;20198;-78
2022/04/28 08:09:29;;;;;;;1.98;1.10;;;20.30;99.90;;;;;;5082508;28;20208;-78
2022/04/28 08:12:01;;;;;;;2.50;0.90;;;20.30;99.90;;;;;;5080808;28;20292;-79
2022/04/28 08:14:32;;;;;;;1.60;1.02;;;20.30;99.90;;;;;;5075782;28;20227;-79
2022/04/28 08:17:03;;;;;;;2.90;0.88;;;20.30;99.90;;;;;;5083298;28;20286;-79
2022/04/28 08:19:34;;;;;;;2.72;0.90;;;20.30;99.90;;;;;;5085670;28;20649;-78
2022/04/28 08:22:05;;;;;;;1.15;0.90;;;20.30;99.90;;;;;;5081676;28;20610;-78
2022/04/28 08:24:35;;;;;;;2.53;0.93;;;20.30;99.90;;;;;;5076928;28;20899;-79
2022/04/28 08:27:08;;;;;;;1.15;0.80;;;20.30;99.90;;;;;;5079654;28;20195;-82
2022/04/28 08:29:39;;;;;;;2.33;0.80;;;20.30;99.90;;;;;;5079605;28;20203;-79
2022/04/28 08:32:12;;;;;;;1.77;0.90;;;20.30;99.90;;;;;;5078926;28;20210;-78
2022/04/28 08:34:42;;;;;;;2.13;0.82;;;20.20;99.90;;;;;;5079310;28;20821;-78
2022/04/28 08:37:13;;;;;;;1.58;1.00;;;20.20;99.90;;;;;;5081767;28;20288;-78
2022/04/28 08:39:44;;;;;;;0.73;0.70;;;20.30;99.90;;;;;;5081357;28;20199;-78
2022/04/28 08:42:17;;;;;;;1.65;0.90;;;20.30;99.90;;;;;;5082135;28;20203;-78
2022/04/28 08:44:49;;;;;;;2.00;0.90;;;20.30;99.90;;;;;;5082124;28;20693;-79
2022/04/28 08:47:20;;;;;;;1.48;0.80;;;20.30;99.90;;;;;;5067125;28;20275;-81
2022/04/28 08:49:53;;;;;;;1.50;0.90;;;20.30;99.90;;;;;;5080600;28;20192;-78
2022/04/28 08:52:24;;;;;;;1.75;0.88;;;20.30;99.90;;;;;;5078104;28;20339;-77
2022/04/28 08:54:57;;;;;;;1.42;0.80;;;20.30;99.90;;;;;;5079603;28;20219;-78
2022/04/28 08:57:33;;;;;;;1.52;0.95;;;20.40;99.90;;;;;;5080816;28;20322;-76
2022/04/28 09:00:04;;;;;;;0.80;0.80;;;20.30;99.90;;;;;;5082027;28;20278;-79
2022/04/28 09:02:34;;;;;;;2.60;1.00;;;20.40;99.90;;;;;;5080596;28;20247;-78
2022/04/28 09:05:06;;;;;;;0.80;0.80;;;20.40;99.90;;;;;;5081058;28;20661;-78
2022/04/28 09:07:38;;;;;;;1.92;1.10;;;20.30;99.90;;;;;;5080891;28;20291;-78
2022/04/28 09:10:29;;;;;;;2.15;1.02;;;20.30;99.90;;;;;;5080251;28;20208;-79
2022/04/28 09:15:50;;;;;;;2.05;1.05;;;20.20;99.90;;;;;;5080798;28;20713;-80
2022/04/28 09:18:21;;;;;;;1.65;0.82;;;20.20;99.90;;;;;;5069974;28;20227;-76
2022/04/28 09:20:52;;;;;;;2.35;1.10;;;20.20;99.90;;;;;;5072351;28;20196;-78
2022/04/28 09:23:23;;;;;;;1.50;0.90;;;20.20;99.90;;;;;;5078414;28;20195;-78
2022/04/28 09:25:56;;;;;;;2.03;1.30;;;20.20;99.90;;;;;;5081373;28;20195;-75
2022/04/28 09:28:29;;;;;;;2.65;1.35;;;20.20;99.90;;;;;;5071328;28;20200;-77
2022/04/28 09:31:01;;;;;;;1.77;1.10;;;20.20;99.90;;;;;;5072655;28;20293;-77
2022/04/28 09:33:32;;;;;;;0.98;0.70;;;20.20;99.90;;;;;;5074742;28;20220;-77
2022/04/28 09:36:03;;;;;;;2.05;0.90;;;20.20;99.90;;;;;;5072426;28;20228;-79
2022/04/28 09:38:35;;;;;;;1.05;0.90;;;20.30;99.90;;;;;;5073803;28;20200;-76
2022/04/28 09:43:59;;;;;;;1.00;0.80;;;20.20;99.90;;;;;;5084182;28;20198;-77
2022/04/28 09:46:29;;;;;;;3.80;0.95;;;20.30;99.90;;;;;;5072951;28;20200;-79
2022/04/28 09:49:01;;;;;;;2.88;0.95;;;20.30;99.90;;;;;;5073498;28;20211;-77
2022/04/28 09:51:33;;;;;;;3.33;0.82;;;20.40;99.90;;;;;;5086244;28;20255;-77
2022/04/28 09:54:08;;;;;;;0.85;0.70;;;20.40;99.90;;;;;;5076364;28;20285;-77
2022/04/28 09:56:39;;;;;;;1.83;0.75;;;20.40;99.90;;;;;;5076527;28;20196;-75
2022/04/28 09:59:13;;;;;;;1.38;1.00;;;20.30;99.90;;;;;;5071910;28;20211;-73
2022/04/28 10:01:44;;;;;;;2.35;1.00;;;20.30;99.90;;;;;;5071235;28;20231;-78
2022/04/28 10:04:14;;;;;;;1.48;0.80;;;20.30;99.90;;;;;;5071841;28;20198;-78
2022/04/28 10:06:45;;;;;;;1.13;0.80;;;20.30;99.90;;;;;;5071875;28;20208;-78
2022/04/28 10:09:17;;;;;;;2.05;0.80;;;20.30;99.90;;;;;;5071745;28;20203;-78
2022/04/28 10:11:50;;;;;;;1.58;0.90;;;20.40;99.90;;;;;;5073830;28;20202;-78
2022/04/28 10:14:24;;;;;;;2.10;0.80;;;20.30;99.90;;;;;;5072201;28;20647;-78
2022/04/28 10:16:57;;;;;;;1.25;0.70;;;20.30;99.90;;;;;;5072187;28;20732;-78
2022/04/28 10:19:31;;;;;;;1.63;0.85;;;20.30;99.90;;;;;;5075139;28;20663;-75
2022/04/28 10:22:05;;;;;;;1.42;0.88;;;20.30;99.90;;;;;;5077252;28;20195;-74
2022/04/28 10:33:08;;;;;;;1.55;0.90;;;20.30;99.90;;;;;;5077423;28;20574;-77
2022/04/28 10:35:41;;;;;;;3.08;0.80;;;20.20;99.90;;;;;;5084373;28;20732;-75
2022/04/28 10:38:15;;;;;;;1.80;0.70;;;20.20;99.90;;;;;;5086942;28;20707;-75
2022/04/28 10:40:48;;;;;;;2.40;0.82;;;20.20;99.90;;;;;;5075800;28;20195;-75
2022/04/28 10:43:26;;;;;;;1.90;0.93;;;20.30;99.90;;;;;;5077260;28;20241;-75
2022/04/28 10:46:01;;;;;;;1.27;0.80;;;20.30;99.90;;;;;;5070532;28;20570;-80
2022/04/28 10:48:38;;;;;;;1.75;1.10;;;20.30;99.90;;;;;;5070706;28;20219;-78
2022/04/28 10:51:15;;;;;;;1.30;0.77;;;20.30;99.90;;;;;;5071004;28;20285;-75
2022/04/28 10:54:05;;;;;;;2.90;0.90;;;20.30;99.90;;;;;;5070751;28;20204;-75
2022/04/28 10:56:56;;;;;;;1.50;0.90;;;20.40;99.90;;;;;;5071002;28;20235;-75
2022/04/28 10:59:36;;;;;;;2.03;0.70;;;20.40;99.90;;;;;;5071481;28;20677;-76
2022/04/28 11:02:50;;;;;;;1.30;0.80;;;20.40;99.90;;;;;;5070091;28;20223;-76
2022/04/28 11:05:45;;;;;;;2.00;1.10;;;20.50;99.90;;;;;;5071128;28;20708;-79
2022/04/28 11:08:38;;;;;;;3.40;0.80;;;20.50;99.90;;;;;;5071103;28;20204;-79
2022/04/28 11:11:12;;;;;;;1.58;0.80;;;20.50;99.90;;;;;;5069179;28;20670;-79
2022/04/28 11:13:46;;;;;;;1.42;0.80;;;20.40;99.90;;;;;;5072102;28;20200;-79
2022/04/28 11:16:17;;;;;;;1.25;0.80;;;20.50;99.90;;;;;;5070920;28;20223;-81
2022/04/28 11:18:48;;;;;;;1.15;1.05;;;20.50;99.90;;;;;;5070710;28;20199;-79
2022/04/28 11:21:22;;;;;;;1.65;1.20;;;20.50;99.90;;;;;;5070160;28;20192;-79
2022/04/28 11:23:54;;;;;;;1.63;1.10;;;20.50;99.90;;;;;;5071104;28;20234;-78
2022/04/28 11:26:28;;;;;;;1.30;1.00;;;20.60;99.90;;;;;;5070658;28;20200;-78
2022/04/28 11:29:06;;;;;;;0.80;0.80;;;20.50;99.90;;;;;;5073768;28;20276;-74
2022/04/28 11:31:37;;;;;;;1.13;0.93;;;20.60;99.90;;;;;;5074990;28;20215;-75
2022/04/28 11:34:09;;;;;;;2.45;1.00;;;20.60;99.90;;;;;;5073434;28;20252;-74
2022/04/28 11:36:42;;;;;;;1.42;0.80;;;20.60;99.90;;;;;;5081717;28;20225;-75
2022/04/28 11:39:13;;;;;;;1.13;0.80;;;20.60;99.90;;;;;;5089526;28;20210;-78
2022/04/28 11:41:46;;;;;;;4.72;0.95;;;20.60;99.90;;;;;;5070123;28;20512;-77
2022/04/28 11:44:18;;;;;;;2.65;1.10;;;20.60;99.90;;;;;;5070440;28;20196;-77
2022/04/28 11:46:53;;;;;;;1.58;0.80;;;20.60;99.90;;;;;;5072546;28;20192;-75
2022/04/28 11:49:24;;;;;;;1.88;0.80;;;20.60;99.90;;;;;;5089085;28;20194;-75
2022/04/28 11:51:57;;;;;;;1.88;1.00;;;20.60;99.90;;;;;;5090813;28;20263;-77
2022/04/28 11:54:28;;;;;;;3.17;1.25;;;20.60;99.90;;;;;;5079638;28;20196;-78
2022/04/28 11:57:11;;;;;;;0.70;0.70;;;20.60;99.90;;;;;;5082198;28;20223;-75
2022/04/28 11:59:43;;;;;;;1.45;0.90;;;20.60;99.90;;;;;;5080595;28;20200;-79
2022/04/28 12:02:28;;;;;;;1.83;0.77;;;20.60;99.90;;;;;;5069175;28;20231;-78
2022/04/28 12:04:59;;;;;;;2.65;1.10;;;20.60;99.90;;;;;;5071849;28;20762;-78
2022/04/28 12:07:33;;;;;;;1.70;1.05;;;20.60;99.90;;;;;;5075042;28;20245;-74
2022/04/28 12:15:44;;;;;;;2.58;0.85;;;20.60;99.90;;;;;;5089791;28;20222;-74
2022/04/28 12:21:18;;;;;;;4.32;0.93;;;20.60;99.90;;;;;;5039619;28;20197;-72
2022/04/28 12:23:55;;;;;;;1.60;0.90;;;20.70;99.90;;;;;;5069693;28;20612;-73
2022/04/28 12:26:26;;;;;;;1.60;0.70;;;20.70;99.90;;;;;;5069795;28;20681;-73
2022/04/28 12:28:57;;;;;;;1.00;0.80;;;20.70;99.90;;;;;;5069881;28;20245;-72
2022/04/28 12:31:32;;;;;;;1.00;0.63;;;20.70;99.90;;;;;;5085799;28;20320;-73
2022/04/28 12:34:10;;;;;;;1.55;0.82;;;20.70;99.90;;;;;;5089454;28;20190;-74
2022/04/28 12:36:48;;;;;;;1.25;0.70;;;20.70;99.90;;;;;;5070638;28;20211;-74
2022/04/28 12:39:21;;;;;;;1.55;0.80;;;20.70;99.90;;;;;;5069320;28;20306;-73
2022/04/28 12:41:52;;;;;;;2.00;0.90;;;20.60;99.90;;;;;;5069335;28;20582;-74
2022/04/28 12:44:24;;;;;;;2.05;0.90;;;20.60;99.90;;;;;;5069157;28;20266;-73
2022/04/28 12:46:57;;;;;;;1.20;0.88;;;20.60;99.90;;;;;;5069086;28;20261;-73
2022/04/28 12:49:45;;;;;;;2.15;0.80;;;20.60;99.90;;;;;;5072615;28;20191;-73
2022/04/28 12:52:29;;;;;;;1.38;0.80;;;20.60;99.90;;;;;;5089255;28;20260;-73
2022/04/28 12:55:09;;;;;;;1.65;0.85;;;20.60;99.90;;;;;;5088046;28;20246;-72
2022/04/28 12:57:40;;;;;;;3.15;0.93;;;20.60;99.90;;;;;;5089531;28;20239;-73
2022/04/28 13:00:12;;;;;;;1.33;0.90;;;20.60;99.90;;;;;;5088125;28;20203;-72
2022/04/28 13:02:50;;;;;;;2.00;1.00;;;20.50;99.90;;;;;;5076631;28;20310;-72
2022/04/28 13:05:22;;;;;;;1.50;0.90;;;20.50;99.90;;;;;;5083605;28;20195;-72
2022/04/28 13:07:52;;;;;;;1.35;0.82;;;20.50;99.90;;;;;;5068127;28;20249;-74
2022/04/28 13:10:26;;;;;;;0.98;0.80;;;20.50;99.90;;;;;;5068820;28;20635;-73
2022/04/28 13:12:56;;;;;;;2.85;0.95;;;20.60;99.90;;;;;;5072722;28;20230;-72
2022/04/28 13:15:27;;;;;;;1.40;0.82;;;20.60;99.90;;;;;;5069540;28;20255;-73
2022/04/28 13:17:58;;;;;;;1.60;0.80;;;20.60;99.90;;;;;;5069381;28;20203;-73
2022/04/28 13:20:29;;;;;;;1.90;0.90;;;20.60;99.90;;;;;;5088646;28;20191;-72
2022/04/28 13:22:59;;;;;;;1.77;0.80;;;20.60;99.90;;;;;;5089891;28;20278;-73
2022/04/28 13:25:32;;;;;;;2.30;0.90;;;20.50;99.90;;;;;;5088603;28;20211;-72
2022/04/28 13:28:04;;;;;;;1.63;0.80;;;20.50;99.90;;;;;;5085898;28;20225;-75
2022/04/28 13:30:34;;;;;;;1.70;0.80;;;20.50;99.90;;;;;;5076151;28;20629;-73
2022/04/28 13:33:05;;;;;;;1.00;0.90;;;20.50;99.90;;;;;;5079876;28;20197;-73
2022/04/28 13:35:36;;;;;;;0.70;0.70;;;20.40;99.90;;;;;;5068943;28;20276;-74
2022/04/28 13:38:09;;;;;;;1.00;0.82;;;20.40;99.90;;;;;;5080028;28;20253;-74
2022/04/28 13:40:41;;;;;;;1.38;0.70;;;20.40;99.90;;;;;;5087021;28;20509;-73
2022/04/28 13:43:12;;;;;;;2.05;0.90;;;20.50;99.90;;;;;;5068723;28;20207;-72
2022/04/28 13:45:43;;;;;;;0.90;0.60;;;20.50;99.90;;;;;;5079333;28;20564;-73
2022/04/28 13:48:16;;;;;;;1.05;0.80;;;20.50;99.90;;;;;;5088746;28;20207;-74
2022/04/28 13:50:48;;;;;;;1.02;0.77;;;20.60;99.90;;;;;;5068811;28;20651;-74
2022/04/28 13:53:19;;;;;;;1.27;0.82;;;20.60;99.90;;;;;;5068996;28;20208;-74
2022/04/28 13:55:51;;;;;;;0.60;0.60;;;20.60;99.90;;;;;;5075874;28;20698;-74
2022/04/28 13:58:22;;;;;;;0.80;0.70;;;20.50;99.90;;;;;;5079890;28;20196;-74